Weather observations for the past three days for
Sand Point
Imperial (Metric)
Date Time (akdt) Wind (mph) Vis. (mi.) Weather Sky Cond. Temperature (ºF) Relative Humidity Wind Chill (°F) Heat Index (°F) Pressure Precipitation (in)
Air Dwpt 6 hour altimeter (in) sea level (mb) 1 hr 3 hr 6 hr
Max. Min.
02 05:56 E 5 10.00 Mostly Cloudy FEW019 BKN024 61 57.9 90% 30.06 1018.3
02 04:56 W 6 10.00 Mostly Cloudy BKN022 59 55.9 90% 30.06 1018.1
02 03:56 NW 12 10.00 Mostly Cloudy BKN020 BKN025 60.1 55.9 64 60.1 86% 30.05 1017.9
02 02:56 NW 13 10.00 Overcast OVC022 61 57 87% 30.05 1017.9
02 01:56 NW 10 10.00 Overcast BKN024 OVC043 61 57 87% 30.04 1017.6
02 00:56 W 14 10.00 Overcast SCT028 OVC038 62.1 57.9 86% 30.04 1017.4
01 23:56 NW 12 G 18 10.00 Overcast OVC026 62.1 57.9 86% 30.04 1017.4
01 22:56 NW 10 10.00 Mostly Cloudy FEW034 BKN044 BKN060 61 57 87% 30 1016.2
01 21:56 NW 6 10.00 Overcast BKN018 OVC028 62.1 59 66 62.1 90% 30 1016.0
01 20:56 W 7 10.00 Overcast OVC018 63 57.9 84% 29.99 1015.9
01 19:56 NW 7 10.00 Overcast BKN022 OVC027 64 57.9 81% 29.98 1015.6
01 18:56 NW 9 10.00 Mostly Cloudy FEW023 SCT031 BKN050 64.9 57.9 78% 29.98 1015.3
01 17:56 NW 9 10.00 Mostly Cloudy FEW023 SCT031 BKN050 64.9 57.9 78% 29.97 1015.2
01 16:56 NW 12 10.00 Mostly Cloudy FEW020 SCT026 BKN033 63 60.1 90% 29.98 1015.2
01 15:56 NW 12 10.00 Mostly Cloudy FEW019 SCT025 BKN030 62.1 59 64 57.9 90% 29.97 1015.2
01 14:56 W 8 10.00 Mostly Cloudy FEW022 SCT026 BKN034 64 59 84% 29.96 1014.6
01 13:56 NW 12 10.00 Mostly Cloudy FEW021 SCT026 BKN037 63 59 87% 29.95 1014.3
01 12:56 NW 15 10.00 Mostly Cloudy FEW021 SCT028 BKN040 62.1 57 84% 29.94 1013.9
01 11:56 NW 18 10.00 Mostly Cloudy SCT018 BKN025 BKN035 61 57.9 90% 29.94 1014.1
01 10:56 NW 13 10.00 Light Rain SCT018 BKN023 BKN030 60.1 57.9 93% 29.93 1013.7
01 09:56 NW 16 8.00 Light Rain SCT009 BKN014 OVC025 57.9 57 60.1 57 97% 29.93 1013.6
01 08:56 NW 12 7.00 Light Rain FEW009 BKN014 OVC021 59 57.9 96% 29.92 1013.3
01 07:56 NW 12 6.00 Light Rain Fog/Mist SCT007 BKN011 OVC020 57.9 57 97% 29.89 1012.5
01 06:56 NW 5 4.00 Light Rain Fog/Mist OVC009 59 57.9 96% 29.89 1012.4
01 05:56 NW 8 8.00 Light Rain OVC011 59 57.9 96% 29.89 1012.4
01 04:56 NW 10 G 17 7.00 Light Rain SCT012 BKN034 OVC060 59 57 93% 29.88 1011.9
01 03:56 W 9 4.00 Light Rain Fog/Mist FEW008 OVC014 60.1 57.9 60.1 54 93% 29.88 1012.2
01 02:56 S 8 10.00 Overcast OVC020 57 55.9 96% 29.87 1011.6
01 01:56 S 14 10.00 Overcast OVC024 54 52 93% 29.9 1012.7
01 00:56 SE 6 10.00 Light Rain BKN024 OVC032 55 52 90% 29.95 1014.5
31 23:56 SE 8 10.00 Partly Cloudy FEW037 SCT047 SCT120 55.9 52 87% 29.96 1014.6
31 22:56 Calm 10.00 Overcast BKN020 BKN026 OVC036 57 52 83% 29.99 1015.7
31 21:56 S 7 10.00 Mostly Cloudy BKN022 55.9 51.1 59 55 84% 29.99 1015.9
31 20:56 Vrbl 3 10.00 Overcast SCT017 BKN024 OVC040 55.9 51.1 84% 30 1016.0
31 19:56 NW 13 10.00 Fair CLR 55.9 51.1 84% 29.99 1015.6
31 18:56 W 18 10.00 Mostly Cloudy FEW024 SCT032 BKN050 57 51.1 81% 29.98 1015.5
31 17:56 SW 8 10.00 Mostly Cloudy FEW024 SCT032 BKN050 57.9 51.1 78% 29.99 1015.7
31 16:56 NW 12 10.00 Mostly Cloudy FEW024 SCT032 BKN050 59 52 78% 29.96 1014.7
31 15:56 W 15 10.00 Mostly Cloudy FEW021 SCT028 BKN045 57 52 57.9 54 83% 29.94 1014.1
31 14:56 W 15 10.00 Mostly Cloudy FEW019 SCT025 BKN033 57 51.1 81% 29.95 1014.3
31 13:56 W 20 G 29 10.00 Mostly Cloudy FEW020 SCT027 BKN038 57.9 52 81% 29.93 1013.7
31 12:56 NW 16 10.00 Mostly Cloudy SCT019 BKN034 BKN055 57 53.1 87% 29.93 1013.7
31 11:56 NW 20 G 24 10.00 Mostly Cloudy SCT019 BKN034 BKN044 57.9 54 87% 29.91 1012.9
31 10:56 NW 9 10.00 Mostly Cloudy FEW018 BKN034 BKN044 57 55 93% 29.9 1012.8
31 09:56 NW 5 2.50 Light Rain Fog/Mist FEW018 BKN024 OVC040 55.9 55 55.9 54 97% 29.92 1013.5
31 08:56 N 6 2.00 Rain Fog/Mist FEW018 BKN024 OVC040 55 54 96% 29.91 1012.9
31 07:56 SE 7 6.00 Light Rain Fog/Mist FEW018 BKN024 OVC040 55 54 96% 29.91 1013.1
31 06:56 N 5 10.00 Mostly Cloudy BKN024 BKN030 55.9 53.1 90% 29.97 1015.1
31 05:56 Calm 10.00 Overcast OVC022 55 52 90% 30.02 1016.7
31 04:56 Calm 10.00 Mostly Cloudy FEW024 BKN045 55 52 90% 30.04 1017.6
31 03:56 SE 5 10.00 Overcast FEW019 OVC042 54 52 57 54 93% 30.07 1018.3
31 01:56 N 8 10.00 Overcast OVC027 55.9 52 87% 30.11 1019.8
31 00:56 NW 10 10.00 Overcast BKN031 OVC036 55.9 52 87% 30.11 1019.9
30 23:56 W 13 10.00 Mostly Cloudy BKN030 55 52 90% 30.11 1019.9
30 22:56 NW 10 10.00 Overcast OVC026 57 52 83% 30.13 1020.6
30 21:56 NW 16 10.00 Overcast BKN019 BKN026 OVC055 57 53.1 57.9 55.9 87% 30.12 1020.3
30 20:56 NW 10 10.00 Overcast BKN014 OVC021 57 55 93% 30.12 1020.1
30 19:56 NW 3 6.00 Light Rain Fog/Mist OVC016 57 55 93% 30.12 1020.1
30 18:56 SW 3 9.00 Light Drizzle FEW016 SCT021 BKN028 55.9 53.1 90% 30.13 1020.6
30 17:56 W 8 10.00 Mostly Cloudy FEW018 SCT025 BKN034 55.9 52 87% 30.15 1021.1
30 16:56 W 7 10.00 Mostly Cloudy FEW019 SCT028 BKN050 57.9 51.1 78% 30.17 1021.7
30 15:56 SW 6 10.00 Mostly Cloudy FEW020 BKN040 BKN060 55.9 48.9 57 50 77% 30.19 1022.4
30 14:56 Vrbl 7 10.00 Mostly Cloudy FEW020 BKN040 BKN060 57 48 72% 30.21 1023.3
30 13:56 Vrbl 3 10.00 Overcast FEW020 BKN045 OVC050 55.9 48 75% 30.24 1024.1
30 12:56 S 3 10.00 Overcast FEW020 BKN050 OVC065 55.9 48 75% 30.26 1025.1
30 11:56 Calm 10.00 Overcast FEW020 SCT060 OVC075 54 46.9 77% 30.28 1025.4
30 10:56 S 3 10.00 Overcast SCT075 OVC090 53.1 45 74% 30.28 1025.7
30 09:56 N 3 10.00 Overcast SCT090 OVC100 52 46 52 48.9 80% 30.29 1026.0
30 08:56 NW 5 10.00 Overcast SCT090 OVC100 51.1 46 83% 30.31 1026.6
30 07:56 NW 8 10.00 Partly Cloudy SCT090 SCT110 51.1 46 83% 30.32 1027.0
30 06:56 NW 8 10.00 Partly Cloudy FEW060 SCT120 50 46 86% 47 30.32 1027.0
Date Time (akdt) Wind (mph) Vis. (mi.) Weather Sky Cond. Air Dwpt Max. Min. Relative Humidity Wind Chill (°F) Heat Index (°F) altimeter (in) sea level (mb) 1 hr 3 hr 6 hr
6 hour
Temperature (ºF) Pressure Precipitation (in)